sensor_id;sensor_type;location;lat;lon;timestamp;P1;durP1;ratioP1;P2;durP2;ratioP2
34144;SDS011;20422;53.014;8.886;2022-11-20T00:01:24;29.45;;;15.50;;
34144;SDS011;20422;53.014;8.886;2022-11-20T00:03:52;25.83;;;14.32;;
34144;SDS011;20422;53.014;8.886;2022-11-20T00:06:18;25.85;;;14.13;;
34144;SDS011;20422;53.014;8.886;2022-11-20T00:08:46;27.63;;;14.73;;
34144;SDS011;20422;53.014;8.886;2022-11-20T00:11:14;24.30;;;14.35;;
34144;SDS011;20422;53.014;8.886;2022-11-20T00:16:11;25.98;;;13.82;;
34144;SDS011;20422;53.014;8.886;2022-11-20T00:18:39;25.05;;;14.18;;
34144;SDS011;20422;53.014;8.886;2022-11-20T00:21:15;24.35;;;14.32;;
34144;SDS011;20422;53.014;8.886;2022-11-20T00:23:42;28.02;;;15.70;;
34144;SDS011;20422;53.014;8.886;2022-11-20T00:26:09;26.02;;;14.45;;
34144;SDS011;20422;53.014;8.886;2022-11-20T00:28:37;31.27;;;14.75;;
34144;SDS011;20422;53.014;8.886;2022-11-20T00:31:13;30.40;;;15.45;;
34144;SDS011;20422;53.014;8.886;2022-11-20T00:33:42;27.95;;;16.10;;
34144;SDS011;20422;53.014;8.886;2022-11-20T00:36:13;26.20;;;14.23;;
34144;SDS011;20422;53.014;8.886;2022-11-20T00:38:42;26.33;;;14.63;;
34144;SDS011;20422;53.014;8.886;2022-11-20T00:41:09;27.77;;;15.65;;
34144;SDS011;20422;53.014;8.886;2022-11-20T00:43:37;28.80;;;15.20;;
34144;SDS011;20422;53.014;8.886;2022-11-20T00:46:10;27.95;;;14.75;;
34144;SDS011;20422;53.014;8.886;2022-11-20T00:48:40;22.50;;;13.88;;
34144;SDS011;20422;53.014;8.886;2022-11-20T00:51:07;29.70;;;14.60;;
34144;SDS011;20422;53.014;8.886;2022-11-20T00:53:33;26.48;;;14.55;;
34144;SDS011;20422;53.014;8.886;2022-11-20T00:56:01;27.48;;;14.57;;
34144;SDS011;20422;53.014;8.886;2022-11-20T00:58:30;26.58;;;13.18;;
34144;SDS011;20422;53.014;8.886;2022-11-20T01:01:30;27.33;;;16.10;;
34144;SDS011;20422;53.014;8.886;2022-11-20T01:03:51;30.60;;;17.17;;
34144;SDS011;20422;53.014;8.886;2022-11-20T01:06:21;28.37;;;15.37;;
34144;SDS011;20422;53.014;8.886;2022-11-20T01:08:46;34.13;;;16.27;;
34144;SDS011;20422;53.014;8.886;2022-11-20T01:11:18;36.97;;;17.83;;
34144;SDS011;20422;53.014;8.886;2022-11-20T01:13:46;36.72;;;17.75;;
34144;SDS011;20422;53.014;8.886;2022-11-20T01:16:19;34.10;;;17.52;;
34144;SDS011;20422;53.014;8.886;2022-11-20T01:18:51;28.75;;;16.60;;
34144;SDS011;20422;53.014;8.886;2022-11-20T01:21:27;28.38;;;15.85;;
34144;SDS011;20422;53.014;8.886;2022-11-20T01:23:58;30.60;;;14.73;;
34144;SDS011;20422;53.014;8.886;2022-11-20T01:26:26;27.88;;;15.20;;
34144;SDS011;20422;53.014;8.886;2022-11-20T01:28:57;32.05;;;15.75;;
34144;SDS011;20422;53.014;8.886;2022-11-20T01:31:31;28.73;;;15.82;;
34144;SDS011;20422;53.014;8.886;2022-11-20T01:34:03;29.17;;;16.13;;
34144;SDS011;20422;53.014;8.886;2022-11-20T01:36:31;25.67;;;15.60;;
34144;SDS011;20422;53.014;8.886;2022-11-20T01:39:01;27.42;;;14.68;;
34144;SDS011;20422;53.014;8.886;2022-11-20T01:41:30;29.10;;;15.30;;
34144;SDS011;20422;53.014;8.886;2022-11-20T01:44:17;27.33;;;16.05;;
34144;SDS011;20422;53.014;8.886;2022-11-20T01:46:58;29.05;;;15.32;;
34144;SDS011;20422;53.014;8.886;2022-11-20T01:49:32;28.20;;;15.52;;
34144;SDS011;20422;53.014;8.886;2022-11-20T01:52:12;31.02;;;17.23;;
34144;SDS011;20422;53.014;8.886;2022-11-20T01:55:11;30.20;;;15.77;;
34144;SDS011;20422;53.014;8.886;2022-11-20T01:57:41;31.25;;;17.13;;
34144;SDS011;20422;53.014;8.886;2022-11-20T02:00:10;34.85;;;17.77;;
34144;SDS011;20422;53.014;8.886;2022-11-20T02:02:40;28.25;;;15.50;;
34144;SDS011;20422;53.014;8.886;2022-11-20T02:05:20;32.72;;;15.15;;
34144;SDS011;20422;53.014;8.886;2022-11-20T02:07:51;32.03;;;16.80;;
34144;SDS011;20422;53.014;8.886;2022-11-20T02:10:20;30.85;;;17.13;;
34144;SDS011;20422;53.014;8.886;2022-11-20T02:12:47;27.42;;;14.95;;
34144;SDS011;20422;53.014;8.886;2022-11-20T02:15:33;30.23;;;15.25;;
34144;SDS011;20422;53.014;8.886;2022-11-20T02:17:59;31.10;;;16.60;;
34144;SDS011;20422;53.014;8.886;2022-11-20T02:20:26;26.48;;;15.27;;
34144;SDS011;20422;53.014;8.886;2022-11-20T02:23:16;29.75;;;16.20;;
34144;SDS011;20422;53.014;8.886;2022-11-20T02:25:45;31.67;;;16.92;;
34144;SDS011;20422;53.014;8.886;2022-11-20T02:28:13;32.55;;;15.95;;
34144;SDS011;20422;53.014;8.886;2022-11-20T02:30:40;28.80;;;17.30;;
34144;SDS011;20422;53.014;8.886;2022-11-20T02:33:06;24.67;;;15.48;;
34144;SDS011;20422;53.014;8.886;2022-11-20T02:38:02;24.73;;;14.27;;
34144;SDS011;20422;53.014;8.886;2022-11-20T02:40:29;32.15;;;16.25;;
34144;SDS011;20422;53.014;8.886;2022-11-20T02:42:55;29.05;;;15.73;;
34144;SDS011;20422;53.014;8.886;2022-11-20T02:45:23;30.15;;;15.70;;
34144;SDS011;20422;53.014;8.886;2022-11-20T02:47:51;27.60;;;15.35;;
34144;SDS011;20422;53.014;8.886;2022-11-20T02:50:18;25.83;;;14.02;;
34144;SDS011;20422;53.014;8.886;2022-11-20T02:52:45;29.67;;;14.40;;
34144;SDS011;20422;53.014;8.886;2022-11-20T02:55:11;22.63;;;14.00;;
34144;SDS011;20422;53.014;8.886;2022-11-20T02:57:38;24.63;;;14.18;;
34144;SDS011;20422;53.014;8.886;2022-11-20T03:00:06;23.73;;;14.07;;
34144;SDS011;20422;53.014;8.886;2022-11-20T03:02:33;27.30;;;14.05;;
34144;SDS011;20422;53.014;8.886;2022-11-20T03:05:00;24.80;;;14.57;;
34144;SDS011;20422;53.014;8.886;2022-11-20T03:07:27;25.40;;;14.75;;
34144;SDS011;20422;53.014;8.886;2022-11-20T03:09:53;23.65;;;14.15;;
34144;SDS011;20422;53.014;8.886;2022-11-20T03:12:20;22.40;;;13.10;;
34144;SDS011;20422;53.014;8.886;2022-11-20T03:14:47;24.50;;;13.98;;
34144;SDS011;20422;53.014;8.886;2022-11-20T03:17:14;28.58;;;14.77;;
34144;SDS011;20422;53.014;8.886;2022-11-20T03:19:41;23.15;;;13.93;;
34144;SDS011;20422;53.014;8.886;2022-11-20T03:22:08;24.27;;;14.25;;
34144;SDS011;20422;53.014;8.886;2022-11-20T03:24:36;31.55;;;14.57;;
34144;SDS011;20422;53.014;8.886;2022-11-20T03:27:03;27.58;;;14.20;;
34144;SDS011;20422;53.014;8.886;2022-11-20T03:29:29;26.77;;;14.15;;
34144;SDS011;20422;53.014;8.886;2022-11-20T03:31:56;26.52;;;14.93;;
34144;SDS011;20422;53.014;8.886;2022-11-20T03:34:22;23.90;;;13.93;;
34144;SDS011;20422;53.014;8.886;2022-11-20T03:36:49;26.73;;;14.07;;
34144;SDS011;20422;53.014;8.886;2022-11-20T03:39:15;24.13;;;13.55;;
34144;SDS011;20422;53.014;8.886;2022-11-20T03:41:42;27.17;;;14.90;;
34144;SDS011;20422;53.014;8.886;2022-11-20T03:44:10;26.65;;;13.30;;
34144;SDS011;20422;53.014;8.886;2022-11-20T03:46:38;23.88;;;13.60;;
34144;SDS011;20422;53.014;8.886;2022-11-20T03:49:04;26.50;;;14.02;;
34144;SDS011;20422;53.014;8.886;2022-11-20T03:51:32;29.02;;;14.30;;
34144;SDS011;20422;53.014;8.886;2022-11-20T03:54:01;22.63;;;13.32;;
34144;SDS011;20422;53.014;8.886;2022-11-20T03:56:30;26.63;;;13.30;;
34144;SDS011;20422;53.014;8.886;2022-11-20T03:58:58;26.00;;;13.30;;
34144;SDS011;20422;53.014;8.886;2022-11-20T04:01:25;27.55;;;14.00;;
34144;SDS011;20422;53.014;8.886;2022-11-20T04:03:54;27.90;;;12.77;;
34144;SDS011;20422;53.014;8.886;2022-11-20T04:06:23;24.98;;;14.45;;
34144;SDS011;20422;53.014;8.886;2022-11-20T04:08:51;22.00;;;12.63;;
34144;SDS011;20422;53.014;8.886;2022-11-20T04:11:29;27.90;;;13.82;;
34144;SDS011;20422;53.014;8.886;2022-11-20T04:14:03;23.90;;;12.18;;
34144;SDS011;20422;53.014;8.886;2022-11-20T04:16:33;23.02;;;12.95;;
34144;SDS011;20422;53.014;8.886;2022-11-20T04:19:02;18.60;;;11.23;;
34144;SDS011;20422;53.014;8.886;2022-11-20T04:21:30;28.65;;;11.85;;
34144;SDS011;20422;53.014;8.886;2022-11-20T04:23:56;23.98;;;12.65;;
34144;SDS011;20422;53.014;8.886;2022-11-20T04:26:24;21.30;;;12.23;;
34144;SDS011;20422;53.014;8.886;2022-11-20T04:28:52;23.10;;;12.30;;
34144;SDS011;20422;53.014;8.886;2022-11-20T04:31:26;22.55;;;11.93;;
34144;SDS011;20422;53.014;8.886;2022-11-20T04:33:54;21.75;;;12.15;;
34144;SDS011;20422;53.014;8.886;2022-11-20T04:36:23;22.52;;;11.77;;
34144;SDS011;20422;53.014;8.886;2022-11-20T04:38:52;23.42;;;13.10;;
34144;SDS011;20422;53.014;8.886;2022-11-20T04:41:24;20.98;;;10.98;;
34144;SDS011;20422;53.014;8.886;2022-11-20T04:43:53;23.33;;;11.65;;
34144;SDS011;20422;53.014;8.886;2022-11-20T04:46:25;19.05;;;11.52;;
34144;SDS011;20422;53.014;8.886;2022-11-20T04:48:53;20.98;;;10.45;;
34144;SDS011;20422;53.014;8.886;2022-11-20T04:51:20;22.55;;;10.70;;
34144;SDS011;20422;53.014;8.886;2022-11-20T04:53:46;20.02;;;10.43;;
34144;SDS011;20422;53.014;8.886;2022-11-20T04:56:13;20.67;;;11.13;;
34144;SDS011;20422;53.014;8.886;2022-11-20T04:58:40;22.65;;;11.82;;
34144;SDS011;20422;53.014;8.886;2022-11-20T05:01:10;18.40;;;10.73;;
34144;SDS011;20422;53.014;8.886;2022-11-20T05:03:47;20.80;;;12.45;;
34144;SDS011;20422;53.014;8.886;2022-11-20T05:06:14;22.98;;;12.07;;
34144;SDS011;20422;53.014;8.886;2022-11-20T05:08:43;23.52;;;11.68;;
34144;SDS011;20422;53.014;8.886;2022-11-20T05:11:11;17.77;;;10.02;;
34144;SDS011;20422;53.014;8.886;2022-11-20T05:13:39;17.38;;;10.13;;
34144;SDS011;20422;53.014;8.886;2022-11-20T05:16:09;17.77;;;10.98;;
34144;SDS011;20422;53.014;8.886;2022-11-20T05:18:38;22.83;;;11.13;;
34144;SDS011;20422;53.014;8.886;2022-11-20T05:21:05;17.92;;;9.88;;
34144;SDS011;20422;53.014;8.886;2022-11-20T05:23:33;19.63;;;10.90;;
34144;SDS011;20422;53.014;8.886;2022-11-20T05:26:00;21.80;;;11.27;;
34144;SDS011;20422;53.014;8.886;2022-11-20T05:28:28;22.05;;;11.43;;
34144;SDS011;20422;53.014;8.886;2022-11-20T05:30:56;23.35;;;11.93;;
34144;SDS011;20422;53.014;8.886;2022-11-20T05:33:37;20.58;;;10.88;;
34144;SDS011;20422;53.014;8.886;2022-11-20T05:36:06;21.55;;;10.70;;
34144;SDS011;20422;53.014;8.886;2022-11-20T05:38:33;18.58;;;11.18;;
34144;SDS011;20422;53.014;8.886;2022-11-20T05:41:12;25.88;;;11.65;;
34144;SDS011;20422;53.014;8.886;2022-11-20T05:43:42;21.10;;;11.93;;
34144;SDS011;20422;53.014;8.886;2022-11-20T05:46:11;19.98;;;10.60;;
34144;SDS011;20422;53.014;8.886;2022-11-20T05:48:38;21.45;;;10.80;;
34144;SDS011;20422;53.014;8.886;2022-11-20T05:51:10;24.90;;;11.73;;
34144;SDS011;20422;53.014;8.886;2022-11-20T05:53:39;24.08;;;10.60;;
34144;SDS011;20422;53.014;8.886;2022-11-20T05:56:12;23.60;;;11.23;;
34144;SDS011;20422;53.014;8.886;2022-11-20T05:58:40;25.52;;;11.45;;
34144;SDS011;20422;53.014;8.886;2022-11-20T06:01:21;21.73;;;11.10;;
34144;SDS011;20422;53.014;8.886;2022-11-20T06:03:50;19.35;;;10.35;;
34144;SDS011;20422;53.014;8.886;2022-11-20T06:06:16;27.75;;;13.05;;
34144;SDS011;20422;53.014;8.886;2022-11-20T06:08:44;20.02;;;11.63;;
34144;SDS011;20422;53.014;8.886;2022-11-20T06:11:11;19.80;;;11.02;;
34144;SDS011;20422;53.014;8.886;2022-11-20T06:13:39;23.27;;;11.15;;
34144;SDS011;20422;53.014;8.886;2022-11-20T06:16:06;22.48;;;11.02;;
34144;SDS011;20422;53.014;8.886;2022-11-20T06:18:33;19.42;;;11.13;;
34144;SDS011;20422;53.014;8.886;2022-11-20T06:23:47;19.50;;;10.52;;
34144;SDS011;20422;53.014;8.886;2022-11-20T06:26:15;21.42;;;11.90;;
34144;SDS011;20422;53.014;8.886;2022-11-20T06:28:43;19.92;;;10.35;;
34144;SDS011;20422;53.014;8.886;2022-11-20T06:31:10;22.77;;;12.05;;
34144;SDS011;20422;53.014;8.886;2022-11-20T06:36:06;22.35;;;10.25;;
34144;SDS011;20422;53.014;8.886;2022-11-20T06:38:33;19.63;;;10.65;;
34144;SDS011;20422;53.014;8.886;2022-11-20T06:40:59;16.98;;;9.27;;
34144;SDS011;20422;53.014;8.886;2022-11-20T06:43:26;20.05;;;9.80;;
34144;SDS011;20422;53.014;8.886;2022-11-20T06:45:55;20.93;;;10.67;;
34144;SDS011;20422;53.014;8.886;2022-11-20T06:48:23;22.17;;;12.35;;
34144;SDS011;20422;53.014;8.886;2022-11-20T06:50:51;22.05;;;10.82;;
34144;SDS011;20422;53.014;8.886;2022-11-20T06:53:18;15.82;;;9.25;;
34144;SDS011;20422;53.014;8.886;2022-11-20T06:55:45;20.90;;;10.27;;
34144;SDS011;20422;53.014;8.886;2022-11-20T06:58:12;23.33;;;12.15;;
34144;SDS011;20422;53.014;8.886;2022-11-20T07:00:40;19.27;;;9.75;;
34144;SDS011;20422;53.014;8.886;2022-11-20T07:03:07;23.83;;;11.18;;
34144;SDS011;20422;53.014;8.886;2022-11-20T07:05:35;20.13;;;10.85;;
34144;SDS011;20422;53.014;8.886;2022-11-20T07:08:02;18.10;;;9.43;;
34144;SDS011;20422;53.014;8.886;2022-11-20T07:10:29;19.35;;;10.63;;
34144;SDS011;20422;53.014;8.886;2022-11-20T07:12:56;23.02;;;11.48;;
34144;SDS011;20422;53.014;8.886;2022-11-20T07:15:23;19.58;;;10.32;;
34144;SDS011;20422;53.014;8.886;2022-11-20T07:17:51;20.25;;;10.52;;
34144;SDS011;20422;53.014;8.886;2022-11-20T07:20:17;15.07;;;9.93;;
34144;SDS011;20422;53.014;8.886;2022-11-20T07:22:44;20.35;;;10.93;;
34144;SDS011;20422;53.014;8.886;2022-11-20T07:25:10;18.25;;;10.02;;
34144;SDS011;20422;53.014;8.886;2022-11-20T07:27:37;21.30;;;11.35;;
34144;SDS011;20422;53.014;8.886;2022-11-20T07:30:04;23.50;;;11.98;;
34144;SDS011;20422;53.014;8.886;2022-11-20T07:32:31;18.48;;;11.13;;
34144;SDS011;20422;53.014;8.886;2022-11-20T07:34:57;16.75;;;9.38;;
34144;SDS011;20422;53.014;8.886;2022-11-20T07:37:24;16.50;;;9.77;;
34144;SDS011;20422;53.014;8.886;2022-11-20T07:40:03;19.40;;;10.30;;
34144;SDS011;20422;53.014;8.886;2022-11-20T07:42:30;19.75;;;11.45;;
34144;SDS011;20422;53.014;8.886;2022-11-20T07:44:56;18.70;;;10.48;;
34144;SDS011;20422;53.014;8.886;2022-11-20T07:47:23;23.38;;;11.60;;
34144;SDS011;20422;53.014;8.886;2022-11-20T07:49:50;24.55;;;12.63;;
34144;SDS011;20422;53.014;8.886;2022-11-20T07:52:16;19.58;;;10.63;;
34144;SDS011;20422;53.014;8.886;2022-11-20T07:54:43;16.33;;;10.20;;
34144;SDS011;20422;53.014;8.886;2022-11-20T07:57:09;19.20;;;10.63;;
34144;SDS011;20422;53.014;8.886;2022-11-20T07:59:36;18.27;;;10.93;;
34144;SDS011;20422;53.014;8.886;2022-11-20T08:02:05;20.48;;;9.90;;
34144;SDS011;20422;53.014;8.886;2022-11-20T08:04:31;19.52;;;11.02;;
34144;SDS011;20422;53.014;8.886;2022-11-20T08:06:59;17.70;;;10.45;;
34144;SDS011;20422;53.014;8.886;2022-11-20T08:09:26;20.40;;;10.30;;
34144;SDS011;20422;53.014;8.886;2022-11-20T08:11:52;15.90;;;8.98;;
34144;SDS011;20422;53.014;8.886;2022-11-20T08:14:36;18.27;;;10.13;;
34144;SDS011;20422;53.014;8.886;2022-11-20T08:17:02;15.75;;;9.75;;
34144;SDS011;20422;53.014;8.886;2022-11-20T08:19:29;19.83;;;9.77;;
34144;SDS011;20422;53.014;8.886;2022-11-20T08:21:56;14.63;;;9.80;;
34144;SDS011;20422;53.014;8.886;2022-11-20T08:24:22;20.65;;;10.93;;
34144;SDS011;20422;53.014;8.886;2022-11-20T08:26:49;19.45;;;10.60;;
34144;SDS011;20422;53.014;8.886;2022-11-20T08:29:16;18.92;;;10.80;;
34144;SDS011;20422;53.014;8.886;2022-11-20T08:31:42;20.25;;;11.15;;
34144;SDS011;20422;53.014;8.886;2022-11-20T08:34:09;16.90;;;10.40;;
34144;SDS011;20422;53.014;8.886;2022-11-20T08:36:35;23.65;;;10.38;;
34144;SDS011;20422;53.014;8.886;2022-11-20T08:39:02;16.50;;;9.95;;
34144;SDS011;20422;53.014;8.886;2022-11-20T08:41:30;16.85;;;10.13;;
34144;SDS011;20422;53.014;8.886;2022-11-20T08:44:05;19.08;;;10.80;;
34144;SDS011;20422;53.014;8.886;2022-11-20T08:46:37;16.10;;;9.52;;
34144;SDS011;20422;53.014;8.886;2022-11-20T08:49:09;15.48;;;9.15;;
34144;SDS011;20422;53.014;8.886;2022-11-20T08:51:37;23.33;;;9.77;;
34144;SDS011;20422;53.014;8.886;2022-11-20T08:54:05;15.80;;;10.20;;
34144;SDS011;20422;53.014;8.886;2022-11-20T08:56:31;16.02;;;9.38;;
34144;SDS011;20422;53.014;8.886;2022-11-20T08:58:58;17.65;;;10.30;;
34144;SDS011;20422;53.014;8.886;2022-11-20T09:01:28;19.48;;;10.35;;
34144;SDS011;20422;53.014;8.886;2022-11-20T09:04:00;18.55;;;10.88;;
34144;SDS011;20422;53.014;8.886;2022-11-20T09:06:27;17.73;;;10.60;;
34144;SDS011;20422;53.014;8.886;2022-11-20T09:08:53;21.55;;;10.88;;
34144;SDS011;20422;53.014;8.886;2022-11-20T09:11:20;18.13;;;9.75;;
34144;SDS011;20422;53.014;8.886;2022-11-20T09:13:48;17.58;;;9.82;;
34144;SDS011;20422;53.014;8.886;2022-11-20T09:16:15;18.05;;;9.88;;
34144;SDS011;20422;53.014;8.886;2022-11-20T09:18:44;17.65;;;10.90;;
34144;SDS011;20422;53.014;8.886;2022-11-20T09:21:11;23.95;;;11.23;;
34144;SDS011;20422;53.014;8.886;2022-11-20T09:23:39;19.45;;;10.77;;
34144;SDS011;20422;53.014;8.886;2022-11-20T09:26:11;18.33;;;9.02;;
34144;SDS011;20422;53.014;8.886;2022-11-20T09:28:38;15.90;;;10.30;;
34144;SDS011;20422;53.014;8.886;2022-11-20T09:31:37;18.08;;;10.25;;
34144;SDS011;20422;53.014;8.886;2022-11-20T09:33:55;17.83;;;10.52;;
34144;SDS011;20422;53.014;8.886;2022-11-20T09:36:22;19.77;;;10.60;;
34144;SDS011;20422;53.014;8.886;2022-11-20T09:38:48;17.23;;;10.88;;
34144;SDS011;20422;53.014;8.886;2022-11-20T09:50:19;18.73;;;9.52;;
34144;SDS011;20422;53.014;8.886;2022-11-20T09:55:39;17.38;;;10.35;;
34144;SDS011;20422;53.014;8.886;2022-11-20T10:01:17;16.58;;;10.45;;
34144;SDS011;20422;53.014;8.886;2022-11-20T10:06:44;19.38;;;9.70;;
34144;SDS011;20422;53.014;8.886;2022-11-20T10:09:32;18.48;;;10.30;;
34144;SDS011;20422;53.014;8.886;2022-11-20T10:15:33;15.75;;;9.32;;
34144;SDS011;20422;53.014;8.886;2022-11-20T10:18:23;18.15;;;10.45;;
34144;SDS011;20422;53.014;8.886;2022-11-20T10:24:08;32.65;;;14.80;;
34144;SDS011;20422;53.014;8.886;2022-11-20T10:29:41;26.92;;;13.00;;
34144;SDS011;20422;53.014;8.886;2022-11-20T10:32:18;21.55;;;12.32;;
34144;SDS011;20422;53.014;8.886;2022-11-20T10:35:01;21.40;;;11.68;;
34144;SDS011;20422;53.014;8.886;2022-11-20T10:37:35;17.92;;;11.05;;
34144;SDS011;20422;53.014;8.886;2022-11-20T10:48:31;21.30;;;10.70;;
34144;SDS011;20422;53.014;8.886;2022-11-20T10:54:09;24.08;;;12.23;;
34144;SDS011;20422;53.014;8.886;2022-11-20T10:57:44;22.52;;;12.43;;
34144;SDS011;20422;53.014;8.886;2022-11-20T11:00:22;20.35;;;11.27;;
34144;SDS011;20422;53.014;8.886;2022-11-20T11:02:52;16.80;;;10.10;;
34144;SDS011;20422;53.014;8.886;2022-11-20T11:07:54;18.55;;;10.60;;
34144;SDS011;20422;53.014;8.886;2022-11-20T11:10:26;19.55;;;10.43;;
34144;SDS011;20422;53.014;8.886;2022-11-20T11:13:47;18.40;;;11.27;;
34144;SDS011;20422;53.014;8.886;2022-11-20T11:16:16;21.30;;;11.95;;
34144;SDS011;20422;53.014;8.886;2022-11-20T11:18:47;20.23;;;10.93;;
34144;SDS011;20422;53.014;8.886;2022-11-20T11:21:13;15.50;;;10.27;;
34144;SDS011;20422;53.014;8.886;2022-11-20T11:23:56;17.02;;;10.25;;
34144;SDS011;20422;53.014;8.886;2022-11-20T11:28:55;22.67;;;10.95;;
34144;SDS011;20422;53.014;8.886;2022-11-20T11:34:11;18.13;;;10.90;;
34144;SDS011;20422;53.014;8.886;2022-11-20T11:36:41;17.45;;;10.57;;
34144;SDS011;20422;53.014;8.886;2022-11-20T11:39:19;18.67;;;11.77;;
34144;SDS011;20422;53.014;8.886;2022-11-20T11:41:47;22.10;;;12.05;;
34144;SDS011;20422;53.014;8.886;2022-11-20T11:44:21;28.90;;;14.65;;
34144;SDS011;20422;53.014;8.886;2022-11-20T11:47:21;23.13;;;12.95;;
34144;SDS011;20422;53.014;8.886;2022-11-20T11:58:48;24.90;;;12.73;;
34144;SDS011;20422;53.014;8.886;2022-11-20T12:07:18;38.67;;;20.30;;
34144;SDS011;20422;53.014;8.886;2022-11-20T12:09:49;19.38;;;12.63;;
34144;SDS011;20422;53.014;8.886;2022-11-20T12:12:51;20.92;;;11.10;;
34144;SDS011;20422;53.014;8.886;2022-11-20T12:15:16;17.52;;;10.88;;
34144;SDS011;20422;53.014;8.886;2022-11-20T12:17:52;19.80;;;10.60;;
34144;SDS011;20422;53.014;8.886;2022-11-20T12:20:17;15.52;;;10.02;;
34144;SDS011;20422;53.014;8.886;2022-11-20T12:25:52;15.55;;;8.45;;
34144;SDS011;20422;53.014;8.886;2022-11-20T12:28:40;20.10;;;10.77;;
34144;SDS011;20422;53.014;8.886;2022-11-20T12:31:25;15.23;;;9.57;;
34144;SDS011;20422;53.014;8.886;2022-11-20T12:43:19;14.75;;;8.95;;
34144;SDS011;20422;53.014;8.886;2022-11-20T12:58:50;17.35;;;10.00;;
34144;SDS011;20422;53.014;8.886;2022-11-20T13:07:13;17.77;;;10.25;;
34144;SDS011;20422;53.014;8.886;2022-11-20T21:18:16;9.25;;;4.13;;
34144;SDS011;20422;53.014;8.886;2022-11-20T21:20:43;10.35;;;3.85;;
